createdAt,value
2019-05-13T00:01:43.473Z,2.10
2019-05-13T00:04:10.829Z,2.35
2019-05-13T00:06:50.365Z,2.47
2019-05-13T00:09:06.791Z,2.40
2019-05-13T00:11:34.587Z,2.40
2019-05-13T00:14:04.485Z,2.45
2019-05-13T00:16:33.599Z,2.22
2019-05-13T00:19:00.316Z,2.00
2019-05-13T00:21:27.360Z,2.00
2019-05-13T00:23:54.636Z,2.00
2019-05-13T00:26:21.470Z,2.10
2019-05-13T00:28:48.379Z,1.70
2019-05-13T00:31:15.401Z,1.95
2019-05-13T00:33:44.408Z,1.98
2019-05-13T00:36:11.253Z,1.95
2019-05-13T00:38:38.510Z,2.20
2019-05-13T00:41:05.303Z,2.05
2019-05-13T00:43:33.824Z,2.10
2019-05-13T00:46:00.967Z,1.90
2019-05-13T00:48:29.796Z,2.10
2019-05-13T00:50:56.706Z,2.02
2019-05-13T00:53:23.811Z,2.00
2019-05-13T00:55:53.434Z,1.80
2019-05-13T00:58:20.181Z,2.00
2019-05-13T01:00:47.379Z,1.80
2019-05-13T01:03:14.295Z,2.00
2019-05-13T01:05:44.221Z,2.17
2019-05-13T01:08:10.541Z,2.17
2019-05-13T01:10:38.200Z,2.20
2019-05-13T01:13:05.203Z,2.10
2019-05-13T01:15:34.556Z,1.90
2019-05-13T01:18:00.694Z,1.90
2019-05-13T01:20:27.993Z,1.70
2019-05-13T01:22:55.293Z,2.12
2019-05-13T01:25:24.257Z,1.80
2019-05-13T01:27:53.775Z,1.92
2019-05-13T01:30:21.181Z,1.80
2019-05-13T01:32:48.057Z,1.80
2019-05-13T01:35:15.397Z,1.87
2019-05-13T01:37:45.968Z,1.72
2019-05-13T01:40:15.178Z,2.00
2019-05-13T01:42:44.333Z,2.10
2019-05-13T01:45:13.760Z,1.90
2019-05-13T01:47:44.118Z,1.80
2019-05-13T01:50:14.017Z,1.62
2019-05-13T01:52:40.422Z,1.95
2019-05-13T01:55:08.110Z,1.80
2019-05-13T01:57:35.491Z,1.82
2019-05-13T02:00:07.376Z,1.80
2019-05-13T02:02:34.169Z,2.12
2019-05-13T02:05:03.782Z,2.12
2019-05-13T02:07:30.446Z,1.98
2019-05-13T02:09:58.717Z,2.00
2019-05-13T02:12:25.816Z,1.85
2019-05-13T02:14:53.399Z,1.80
2019-05-13T02:17:20.425Z,2.00
2019-05-13T02:19:47.676Z,1.75
2019-05-13T02:22:14.826Z,1.80
2019-05-13T02:24:41.680Z,1.90
2019-05-13T02:27:08.527Z,1.75
2019-05-13T02:29:35.268Z,1.72
2019-05-13T02:32:03.220Z,2.08
2019-05-13T02:34:32.190Z,1.82
2019-05-13T02:36:59.100Z,1.90
2019-05-13T02:39:26.520Z,1.90
2019-05-13T02:41:53.663Z,1.92
2019-05-13T02:44:22.559Z,2.12
2019-05-13T02:46:52.294Z,2.00
2019-05-13T02:49:18.190Z,1.92
2019-05-13T02:51:45.163Z,1.90
2019-05-13T02:54:12.821Z,2.00
2019-05-13T02:56:42.222Z,2.15
2019-05-13T02:59:13.007Z,2.05
2019-05-13T03:01:38.146Z,1.98
2019-05-13T03:04:05.802Z,1.80
2019-05-13T03:06:33.435Z,2.12
2019-05-13T03:09:03.111Z,2.10
2019-05-13T03:11:32.885Z,2.20
2019-05-13T03:13:58.683Z,2.05
2019-05-13T03:16:42.633Z,2.27
2019-05-13T03:19:08.350Z,1.87
2019-05-13T03:21:35.520Z,1.87
2019-05-13T03:24:03.755Z,1.98
2019-05-13T03:26:32.135Z,1.85
2019-05-13T03:29:02.809Z,2.00
2019-05-13T03:31:35.235Z,2.15
2019-05-13T03:33:58.545Z,2.02
2019-05-13T03:36:26.648Z,1.90
2019-05-13T03:39:05.317Z,2.05
2019-05-13T03:41:26.388Z,1.92
2019-05-13T03:43:56.378Z,2.30
2019-05-13T03:46:25.134Z,2.20
2019-05-13T03:48:53.061Z,2.05
2019-05-13T03:51:22.449Z,2.22
2019-05-13T03:53:53.219Z,2.20
2019-05-13T03:56:18.652Z,2.10
2019-05-13T03:58:45.752Z,2.10
2019-05-13T04:01:13.580Z,2.35
2019-05-13T04:03:44.095Z,2.47
2019-05-13T04:06:13.526Z,2.37
2019-05-13T04:08:42.995Z,2.00
2019-05-13T04:11:08.540Z,2.47
2019-05-13T04:13:35.812Z,4.78
2019-05-13T04:16:04.406Z,3.05
2019-05-13T04:18:32.129Z,2.33
2019-05-13T04:21:02.757Z,2.35
2019-05-13T04:23:32.032Z,2.58
2019-05-13T04:25:58.049Z,2.50
2019-05-13T04:28:28.201Z,2.22
2019-05-13T04:30:55.174Z,2.40
2019-05-13T04:33:24.539Z,2.20
2019-05-13T04:35:52.943Z,2.25
2019-05-13T04:38:22.783Z,2.65
2019-05-13T04:40:52.649Z,2.30
2019-05-13T04:43:18.903Z,2.70
2019-05-13T04:45:46.297Z,2.15
2019-05-13T04:48:13.180Z,2.47
2019-05-13T04:50:42.917Z,2.02
2019-05-13T04:53:08.923Z,2.45
2019-05-13T04:55:35.988Z,2.30
2019-05-13T04:58:03.714Z,2.40
2019-05-13T05:01:08.870Z,2.45
2019-05-13T05:03:53.109Z,2.60
2019-05-13T05:06:33.137Z,2.80
2019-05-13T05:09:26.901Z,2.33
2019-05-13T05:12:34.471Z,2.10
2019-05-13T05:15:33.673Z,2.40
2019-05-13T05:18:56.120Z,2.55
2019-05-13T05:21:37.650Z,2.30
2019-05-13T05:24:34.112Z,2.85
2019-05-13T05:27:18.322Z,2.80
2019-05-13T05:30:11.720Z,2.25
2019-05-13T05:33:01.951Z,2.90
2019-05-13T05:35:52.198Z,2.80
2019-05-13T05:38:31.807Z,2.60
2019-05-13T05:41:01.781Z,2.25
2019-05-13T05:43:32.046Z,2.30
2019-05-13T05:46:01.943Z,2.85
2019-05-13T05:48:31.534Z,2.67
2019-05-13T05:51:01.979Z,2.60
2019-05-13T05:53:33.374Z,2.55
2019-05-13T05:56:02.775Z,2.72
2019-05-13T05:58:32.397Z,2.90
2019-05-13T06:01:02.458Z,2.72
2019-05-13T06:03:33.983Z,2.95
2019-05-13T06:06:01.889Z,3.47
2019-05-13T06:08:28.971Z,3.20
2019-05-13T06:10:56.350Z,3.10
2019-05-13T06:13:24.019Z,2.70
2019-05-13T06:15:51.375Z,2.40
2019-05-13T06:18:18.646Z,2.80
2019-05-13T06:20:45.642Z,2.77
2019-05-13T06:23:12.927Z,2.25
2019-05-13T06:25:42.736Z,2.30
2019-05-13T06:28:09.169Z,2.50
2019-05-13T06:30:36.140Z,2.08
2019-05-13T06:33:03.502Z,2.10
2019-05-13T06:35:32.338Z,1.75
2019-05-13T06:38:01.405Z,1.90
2019-05-13T06:40:28.340Z,2.00
2019-05-13T06:42:55.132Z,2.00
2019-05-13T06:45:22.273Z,1.92
2019-05-13T06:47:51.995Z,1.90
2019-05-13T06:50:18.024Z,1.92
2019-05-13T06:52:45.280Z,1.95
2019-05-13T06:55:12.286Z,2.15
2019-05-13T06:57:39.037Z,2.00
2019-05-13T07:00:07.049Z,1.70
2019-05-13T07:02:34.294Z,1.90
2019-05-13T07:05:02.369Z,2.00
2019-05-13T07:07:31.717Z,1.70
2019-05-13T07:09:58.343Z,1.65
2019-05-13T07:12:25.417Z,2.25
2019-05-13T07:14:52.221Z,2.12
2019-05-13T07:17:22.063Z,1.80
2019-05-13T07:19:47.896Z,1.60
2019-05-13T07:22:14.696Z,1.85
2019-05-13T07:24:42.015Z,1.60
2019-05-13T07:27:09.268Z,1.45
2019-05-13T07:29:36.439Z,1.75
2019-05-13T07:32:03.485Z,1.65
2019-05-13T07:34:33.462Z,1.77
2019-05-13T07:37:01.754Z,1.60
2019-05-13T07:39:28.306Z,1.80
2019-05-13T07:41:55.187Z,1.70
2019-05-13T07:44:22.412Z,2.30
2019-05-13T07:46:52.094Z,1.82
2019-05-13T07:49:18.101Z,1.75
2019-05-13T07:51:44.953Z,1.80
2019-05-13T07:54:11.937Z,1.77
2019-05-13T07:56:38.757Z,1.70
2019-05-13T07:59:05.722Z,1.80
2019-05-13T08:01:32.926Z,1.60
2019-05-13T08:04:02.184Z,1.87
2019-05-13T08:06:28.770Z,1.70
2019-05-13T08:08:55.935Z,1.90
2019-05-13T08:11:24.043Z,1.50
2019-05-13T08:13:51.921Z,1.55
2019-05-13T08:16:18.674Z,1.80
2019-05-13T08:18:45.536Z,1.80
2019-05-13T08:21:12.698Z,1.87
2019-05-13T08:23:41.733Z,1.90
2019-05-13T08:26:08.317Z,1.75
2019-05-13T08:28:35.074Z,1.40
2019-05-13T08:31:02.399Z,1.67
2019-05-13T08:33:31.905Z,1.80
2019-05-13T08:35:58.802Z,1.85
2019-05-13T08:38:26.574Z,1.87
2019-05-13T08:40:53.485Z,1.72
2019-05-13T08:43:22.572Z,1.70
2019-05-13T08:45:51.168Z,1.57
2019-05-13T08:48:18.161Z,1.57
2019-05-13T08:50:45.072Z,1.75
2019-05-13T08:53:12.413Z,1.90
2019-05-13T08:55:41.789Z,1.80
2019-05-13T08:58:08.247Z,1.70
2019-05-13T09:01:02.205Z,1.90
2019-05-13T09:03:32.297Z,1.70
2019-05-13T09:05:57.994Z,1.57
2019-05-13T09:08:25.991Z,1.55
2019-05-13T09:10:56.768Z,1.67
2019-05-13T09:13:22.578Z,1.35
2019-05-13T09:15:51.647Z,1.45
2019-05-13T09:18:18.873Z,1.70
2019-05-13T09:20:45.906Z,1.80
2019-05-13T09:23:12.892Z,1.70
2019-05-13T09:25:41.544Z,1.50
2019-05-13T09:28:09.107Z,1.45
2019-05-13T09:30:36.051Z,1.55
2019-05-13T09:33:03.014Z,1.80
2019-05-13T09:35:31.565Z,1.95
2019-05-13T09:37:58.630Z,1.75
2019-05-13T09:40:25.390Z,1.50
2019-05-13T09:42:55.243Z,1.55
2019-05-13T09:45:21.659Z,1.70
2019-05-13T09:47:48.607Z,1.10
2019-05-13T09:50:28.383Z,1.67
2019-05-13T09:52:47.595Z,1.60
2019-05-13T09:55:26.333Z,1.47
2019-05-13T09:57:43.440Z,1.55
2019-05-13T10:00:12.296Z,1.57
2019-05-13T10:02:39.191Z,1.40
2019-05-13T10:05:06.535Z,1.40
2019-05-13T10:07:33.533Z,1.30
2019-05-13T10:10:01.886Z,1.30
2019-05-13T10:12:31.609Z,1.67
2019-05-13T10:14:57.735Z,1.55
2019-05-13T10:17:24.729Z,1.50
2019-05-13T10:19:52.146Z,1.77
2019-05-13T10:22:22.164Z,1.30
2019-05-13T10:24:51.976Z,1.80
2019-05-13T10:27:22.381Z,1.45
2019-05-13T10:29:51.815Z,1.20
2019-05-13T10:32:21.741Z,1.30
2019-05-13T10:34:48.242Z,1.50
2019-05-13T10:37:15.619Z,1.30
2019-05-13T10:39:42.586Z,1.30
2019-05-13T10:42:11.811Z,1.42
2019-05-13T10:44:38.034Z,1.30
2019-05-13T10:47:05.118Z,1.10
2019-05-13T10:49:33.182Z,1.30
2019-05-13T10:52:02.863Z,1.50
2019-05-13T10:54:28.962Z,2.17
2019-05-13T10:56:59.377Z,7.92
2019-05-13T10:59:24.518Z,3.08
2019-05-13T11:01:51.262Z,1.80
2019-05-13T11:04:18.211Z,1.57
2019-05-13T11:06:45.410Z,1.65
2019-05-13T11:09:42.160Z,1.40
2019-05-13T11:12:07.311Z,1.60
2019-05-13T11:14:34.267Z,1.50
2019-05-13T11:17:01.811Z,1.57
2019-05-13T11:19:34.356Z,1.27
2019-05-13T11:21:59.219Z,1.12
2019-05-13T11:24:27.002Z,1.50
2019-05-13T11:26:54.134Z,1.67
2019-05-13T11:29:22.973Z,1.60
2019-05-13T11:31:52.280Z,1.42
2019-05-13T11:34:18.483Z,1.70
2019-05-13T11:36:48.293Z,1.60
2019-05-13T11:39:15.073Z,1.42
2019-05-13T11:41:43.103Z,2.00
2019-05-13T11:44:16.165Z,1.65
2019-05-13T11:46:42.786Z,1.30
2019-05-13T11:49:08.102Z,1.42
2019-05-13T11:51:34.967Z,1.45
2019-05-13T11:54:02.561Z,1.37
2019-05-13T11:56:33.408Z,1.45
2019-05-13T11:58:58.315Z,1.60
2019-05-13T12:01:25.255Z,1.50
2019-05-13T12:03:53.036Z,1.37
2019-05-13T12:06:23.224Z,1.30
2019-05-13T12:08:52.068Z,1.40
2019-05-13T12:11:17.859Z,1.80
2019-05-13T12:13:45.219Z,1.50
2019-05-13T12:16:12.834Z,1.50
2019-05-13T12:18:43.676Z,1.80
2019-05-13T12:21:09.237Z,1.37
2019-05-13T12:23:36.042Z,1.60
2019-05-13T12:26:04.075Z,1.50
2019-05-13T12:28:32.958Z,1.40
2019-05-13T12:31:03.369Z,1.32
2019-05-13T12:33:33.167Z,1.52
2019-05-13T12:36:01.995Z,1.67
2019-05-13T12:38:32.565Z,1.60
2019-05-13T12:40:59.050Z,1.45
2019-05-13T12:43:26.071Z,1.35
2019-05-13T12:45:53.495Z,1.30
2019-05-13T12:48:22.973Z,1.47
2019-05-13T12:50:52.954Z,1.50
2019-05-13T12:53:18.595Z,2.00
2019-05-13T12:55:52.331Z,2.95
2019-05-13T12:58:14.619Z,2.92
2019-05-13T13:00:43.397Z,3.50
2019-05-13T13:03:13.242Z,3.50
2019-05-13T13:05:43.236Z,1.55
2019-05-13T13:08:24.508Z,1.30
2019-05-13T13:10:37.975Z,1.87
2019-05-13T13:13:04.946Z,1.40
2019-05-13T13:15:38.244Z,1.45
2019-05-13T13:18:03.316Z,1.47
2019-05-13T13:20:33.563Z,1.35
2019-05-13T13:22:59.103Z,1.50
2019-05-13T13:25:25.944Z,1.20
2019-05-13T13:28:10.665Z,1.20
2019-05-13T13:30:22.231Z,1.32
2019-05-13T13:32:54.209Z,1.27
2019-05-13T13:35:21.806Z,1.30
2019-05-13T13:37:48.792Z,1.47
2019-05-13T13:40:24.506Z,1.22
2019-05-13T13:42:46.990Z,1.40
2019-05-13T13:45:14.194Z,1.50
2019-05-13T13:47:45.385Z,1.30
2019-05-13T13:50:11.819Z,1.30
2019-05-13T13:52:39.321Z,1.30
2019-05-13T13:55:08.787Z,1.75
2019-05-13T13:57:35.191Z,1.22
2019-05-13T14:00:24.925Z,1.42
2019-05-13T14:02:37.023Z,1.17
2019-05-13T14:05:05.943Z,1.50
2019-05-13T14:07:37.824Z,1.17
2019-05-13T14:10:07.111Z,1.00
2019-05-13T14:12:34.012Z,1.40
2019-05-13T14:15:02.041Z,1.50
2019-05-13T14:17:31.273Z,1.07
2019-05-13T14:19:58.532Z,1.50
2019-05-13T14:22:26.016Z,1.12
2019-05-13T14:24:53.343Z,1.15
2019-05-13T14:27:22.416Z,1.35
2019-05-13T14:29:50.229Z,1.37
2019-05-13T14:32:17.795Z,1.20
2019-05-13T14:34:46.185Z,1.27
2019-05-13T14:37:13.158Z,1.17
2019-05-13T14:39:40.287Z,1.40
2019-05-13T14:42:07.415Z,1.30
2019-05-13T14:44:34.176Z,1.42
2019-05-13T14:47:03.562Z,1.37
2019-05-13T14:49:31.710Z,1.22
2019-05-13T14:52:00.755Z,1.10
2019-05-13T14:54:27.622Z,1.00
2019-05-13T14:56:54.794Z,1.25
2019-05-13T14:59:22.161Z,1.20
2019-05-13T15:01:51.699Z,1.17
2019-05-13T15:04:18.098Z,1.20
2019-05-13T15:06:45.105Z,1.57
2019-05-13T15:09:12.822Z,1.10
2019-05-13T15:11:41.920Z,1.40
2019-05-13T15:14:11.499Z,1.30
2019-05-13T15:16:37.941Z,1.30
2019-05-13T15:19:04.890Z,1.60
2019-05-13T15:21:32.183Z,1.55
2019-05-13T15:23:59.245Z,1.20
2019-05-13T15:26:26.506Z,1.40
2019-05-13T15:28:53.620Z,1.62
2019-05-13T15:31:22.081Z,1.32
2019-05-13T15:33:49.211Z,1.22
2019-05-13T15:36:15.987Z,1.10
2019-05-13T15:38:42.856Z,1.60
2019-05-13T15:41:14.684Z,1.22
2019-05-13T15:43:42.450Z,1.50
2019-05-13T15:46:09.457Z,1.27
2019-05-13T15:48:36.614Z,1.50
2019-05-13T15:51:04.087Z,1.30
2019-05-13T15:53:32.162Z,1.70
2019-05-13T15:55:59.337Z,1.30
2019-05-13T15:58:38.391Z,1.57
2019-05-13T16:00:54.896Z,1.22
2019-05-13T16:03:22.028Z,1.22
2019-05-13T16:05:51.477Z,1.10
2019-05-13T16:08:17.666Z,1.40
2019-05-13T16:10:44.753Z,1.35
2019-05-13T16:13:12.328Z,1.30
2019-05-13T16:15:41.594Z,1.30
2019-05-13T16:18:07.934Z,1.00
2019-05-13T16:20:35.478Z,1.30
2019-05-13T16:23:03.396Z,1.17
2019-05-13T16:25:31.906Z,1.30
2019-05-13T16:28:01.208Z,1.07
2019-05-13T16:30:28.102Z,1.02
2019-05-13T16:32:55.137Z,1.70
2019-05-13T16:35:22.029Z,1.07
2019-05-13T16:37:49.219Z,1.30
2019-05-13T16:40:16.361Z,1.10
2019-05-13T16:42:43.358Z,1.00
2019-05-13T16:45:12.831Z,1.20
2019-05-13T16:47:55.898Z,1.45
2019-05-13T16:50:11.490Z,2.30
2019-05-13T16:52:38.648Z,1.05
2019-05-13T16:55:06.633Z,1.30
2019-05-13T16:57:33.440Z,1.20
2019-05-13T17:00:03.597Z,1.10
2019-05-13T17:02:31.057Z,1.32
2019-05-13T17:05:01.404Z,1.30
2019-05-13T17:07:28.609Z,1.07
2019-05-13T17:09:56.027Z,1.22
2019-05-13T17:12:22.899Z,1.20
2019-05-13T17:14:52.029Z,1.10
2019-05-13T17:17:18.530Z,1.92
2019-05-13T17:19:45.715Z,1.17
2019-05-13T17:22:13.016Z,1.30
2019-05-13T17:24:42.481Z,1.25
2019-05-13T17:27:09.413Z,1.40
2019-05-13T17:29:36.188Z,1.50
2019-05-13T17:32:03.029Z,1.37
2019-05-13T17:34:31.889Z,1.40
2019-05-13T17:36:58.636Z,1.20
2019-05-13T17:39:25.665Z,1.40
2019-05-13T17:41:52.572Z,1.45
2019-05-13T17:44:22.506Z,1.17
2019-05-13T17:46:52.039Z,1.25
2019-05-13T17:49:18.652Z,1.32
2019-05-13T17:51:45.417Z,1.22
2019-05-13T17:54:12.344Z,1.40
2019-05-13T17:56:39.194Z,1.30
2019-05-13T17:59:06.008Z,1.30
2019-05-13T18:01:33.161Z,1.00
2019-05-13T18:04:02.268Z,1.10
2019-05-13T18:06:28.661Z,1.10
2019-05-13T18:08:55.444Z,1.37
2019-05-13T18:11:22.316Z,1.35
2019-05-13T18:13:51.704Z,1.12
2019-05-13T18:16:18.376Z,1.00
2019-05-13T18:18:47.560Z,1.20
2019-05-13T18:21:14.340Z,2.30
2019-05-13T18:23:41.529Z,1.45
2019-05-13T18:26:12.431Z,1.55
2019-05-13T18:28:42.009Z,0.98
2019-05-13T18:31:12.256Z,1.22
2019-05-13T18:33:39.122Z,1.40
2019-05-13T18:36:05.951Z,1.40
2019-05-13T18:38:32.797Z,1.40
2019-05-13T18:41:01.734Z,2.10
2019-05-13T18:43:28.662Z,1.92
2019-05-13T18:45:55.540Z,1.50
2019-05-13T18:48:22.668Z,1.60
2019-05-13T18:50:52.109Z,1.30
2019-05-13T18:53:18.703Z,1.47
2019-05-13T18:55:45.762Z,1.10
2019-05-13T18:58:12.621Z,1.40
2019-05-13T19:00:41.600Z,1.67
2019-05-13T19:03:08.568Z,1.85
2019-05-13T19:05:35.467Z,1.80
2019-05-13T19:08:02.856Z,2.05
2019-05-13T19:10:31.278Z,1.60
2019-05-13T19:13:01.192Z,2.10
2019-05-13T19:15:27.936Z,1.80
2019-05-13T19:17:55.062Z,2.20
2019-05-13T19:20:22.115Z,1.60
2019-05-13T19:22:51.684Z,1.70
2019-05-13T19:25:18.581Z,2.60
2019-05-13T19:27:45.800Z,3.92
2019-05-13T19:30:15.104Z,5.67
2019-05-13T19:32:41.911Z,4.45
2019-05-13T19:35:11.649Z,3.98
2019-05-13T19:37:38.688Z,3.40
2019-05-13T19:40:06.092Z,2.98
2019-05-13T19:42:33.056Z,1.82
2019-05-13T19:45:01.944Z,1.80
2019-05-13T19:47:28.950Z,2.77
2019-05-13T19:49:55.701Z,2.20
2019-05-13T19:52:22.913Z,1.80
2019-05-13T19:54:51.425Z,2.00
2019-05-13T19:57:21.100Z,1.80
2019-05-13T19:59:47.517Z,1.60
2019-05-13T20:02:14.417Z,1.30
2019-05-13T20:04:41.547Z,1.67
2019-05-13T20:07:08.958Z,2.40
2019-05-13T20:09:35.736Z,2.87
2019-05-13T20:12:04.856Z,2.25
2019-05-13T20:14:31.708Z,2.05
2019-05-13T20:17:01.723Z,2.00
2019-05-13T20:19:42.718Z,1.80
2019-05-13T20:21:58.027Z,2.12
2019-05-13T20:24:24.940Z,1.70
2019-05-13T20:26:52.293Z,1.75
2019-05-13T20:29:19.627Z,1.52
2019-05-13T20:31:46.393Z,1.80
2019-05-13T20:34:13.264Z,2.12
2019-05-13T20:36:42.066Z,2.10
2019-05-13T20:39:08.893Z,2.00
2019-05-13T20:41:36.302Z,1.60
2019-05-13T20:44:03.194Z,1.95
2019-05-13T20:46:32.540Z,1.92
2019-05-13T20:48:59.415Z,1.80
2019-05-13T20:51:26.276Z,1.95
2019-05-13T20:53:53.068Z,2.58
2019-05-13T20:56:21.441Z,2.17
2019-05-13T20:58:48.591Z,2.37
2019-05-13T21:01:15.500Z,2.65
2019-05-13T21:03:42.377Z,2.58
2019-05-13T21:06:11.582Z,2.60
2019-05-13T21:08:38.219Z,2.70
2019-05-13T21:11:05.063Z,2.60
2019-05-13T21:13:32.084Z,2.20
2019-05-13T21:16:02.047Z,2.33
2019-05-13T21:18:28.323Z,2.17
2019-05-13T21:20:55.416Z,2.60
2019-05-13T21:23:22.684Z,2.05
2019-05-13T21:25:51.054Z,2.17
2019-05-13T21:28:19.069Z,2.37
2019-05-13T21:30:46.433Z,2.30
2019-05-13T21:33:13.825Z,2.12
2019-05-13T21:35:41.931Z,2.70
2019-05-13T21:38:11.328Z,2.30
2019-05-13T21:40:38.760Z,2.40
2019-05-13T21:43:06.108Z,2.58
2019-05-13T21:45:32.961Z,2.05
2019-05-13T21:48:01.706Z,2.45
2019-05-13T21:50:34.155Z,2.20
2019-05-13T21:52:57.640Z,2.33
2019-05-13T21:55:25.021Z,2.15
2019-05-13T21:57:53.065Z,2.22
2019-05-13T22:00:25.296Z,2.50
2019-05-13T22:02:52.434Z,2.10
2019-05-13T22:05:19.192Z,2.40
2019-05-13T22:07:46.215Z,2.37
2019-05-13T22:10:13.464Z,2.40
2019-05-13T22:12:41.504Z,2.00
2019-05-13T22:15:09.433Z,2.40
2019-05-13T22:17:36.275Z,2.50
2019-05-13T22:20:07.317Z,2.50
2019-05-13T22:22:34.276Z,2.45
2019-05-13T22:25:02.059Z,2.30
2019-05-13T22:27:29.009Z,2.52
2019-05-13T22:29:55.911Z,2.60
2019-05-13T22:32:22.843Z,2.67
2019-05-13T22:34:51.192Z,2.45
2019-05-13T22:37:18.771Z,2.50
2019-05-13T22:39:46.445Z,2.20
2019-05-13T22:42:13.410Z,2.00
2019-05-13T22:44:41.726Z,2.00
2019-05-13T22:47:13.005Z,2.33
2019-05-13T22:49:37.917Z,2.27
2019-05-13T22:52:04.717Z,2.20
2019-05-13T22:54:31.941Z,1.98
2019-05-13T22:56:59.195Z,2.15
2019-05-13T22:59:26.217Z,2.20
2019-05-13T23:01:53.141Z,2.30
2019-05-13T23:04:19.988Z,2.40
2019-05-13T23:06:47.099Z,2.20
2019-05-13T23:09:13.877Z,2.27
2019-05-13T23:11:41.791Z,2.30
2019-05-13T23:14:10.888Z,2.47
2019-05-13T23:16:37.520Z,2.40
2019-05-13T23:19:04.404Z,2.22
2019-05-13T23:21:31.823Z,2.20
2019-05-13T23:23:59.004Z,1.92
2019-05-13T23:26:26.139Z,2.22
2019-05-13T23:28:53.339Z,2.20
2019-05-13T23:31:20.080Z,2.33
2019-05-13T23:33:46.973Z,2.10
2019-05-13T23:36:13.816Z,2.05
2019-05-13T23:38:41.416Z,2.17
2019-05-13T23:41:08.474Z,2.10
2019-05-13T23:43:35.583Z,1.92
2019-05-13T23:46:02.540Z,1.90
2019-05-13T23:48:31.874Z,2.12
2019-05-13T23:50:58.794Z,2.17
2019-05-13T23:53:26.148Z,1.98
2019-05-13T23:55:53.015Z,2.50
2019-05-13T23:58:21.683Z,2.60
